sensor_id;sensor_type;location;lat;lon;timestamp;pressure;altitude;pressure_sealevel;temperature;humidity
5284;BME280;15377;48.540;9.268;2023-02-13T00:01:49;99328.31;;;-1.70;100.00
5284;BME280;15377;48.540;9.268;2023-02-13T00:04:14;99318.66;;;-1.71;100.00
5284;BME280;15377;48.540;9.268;2023-02-13T00:06:40;99316.34;;;-1.57;100.00
5284;BME280;15377;48.540;9.268;2023-02-13T00:09:06;99316.34;;;-1.57;100.00
5284;BME280;15377;48.540;9.268;2023-02-13T00:11:35;99313.78;;;-1.66;100.00
5284;BME280;15377;48.540;9.268;2023-02-13T00:14:00;99307.34;;;-1.61;100.00
5284;BME280;15377;48.540;9.268;2023-02-13T00:16:26;99306.28;;;-1.72;100.00
5284;BME280;15377;48.540;9.268;2023-02-13T00:18:51;99322.66;;;-1.81;100.00
5284;BME280;15377;48.540;9.268;2023-02-13T00:21:16;99308.75;;;-1.67;100.00
5284;BME280;15377;48.540;9.268;2023-02-13T00:23:42;99310.94;;;-1.73;100.00
5284;BME280;15377;48.540;9.268;2023-02-13T00:26:10;99319.59;;;-1.79;100.00
5284;BME280;15377;48.540;9.268;2023-02-13T00:28:36;99318.22;;;-1.73;100.00
5284;BME280;15377;48.540;9.268;2023-02-13T00:31:13;99319.28;;;-1.62;100.00
5284;BME280;15377;48.540;9.268;2023-02-13T00:33:39;99313.78;;;-1.66;100.00
5284;BME280;15377;48.540;9.268;2023-02-13T00:36:13;99317.16;;;-1.41;100.00
5284;BME280;15377;48.540;9.268;2023-02-13T00:38:40;99312.78;;;-1.46;100.00
5284;BME280;15377;48.540;9.268;2023-02-13T00:41:06;99304.50;;;-1.68;100.00
5284;BME280;15377;48.540;9.268;2023-02-13T00:43:32;99313.22;;;-1.59;100.00
5284;BME280;15377;48.540;9.268;2023-02-13T00:45:58;99310.00;;;-1.49;100.00
5284;BME280;15377;48.540;9.268;2023-02-13T00:48:24;99304.16;;;-1.51;100.00
5284;BME280;15377;48.540;9.268;2023-02-13T00:50:50;99308.34;;;-1.38;100.00
5284;BME280;15377;48.540;9.268;2023-02-13T00:53:22;99310.25;;;-1.54;100.00
5284;BME280;15377;48.540;9.268;2023-02-13T00:55:48;99310.19;;;-1.42;100.00
5284;BME280;15377;48.540;9.268;2023-02-13T00:58:14;99307.91;;;-1.56;100.00
5284;BME280;15377;48.540;9.268;2023-02-13T01:00:40;99318.69;;;-1.56;100.00
5284;BME280;15377;48.540;9.268;2023-02-13T01:03:05;99319.28;;;-1.62;100.00
5284;BME280;15377;48.540;9.268;2023-02-13T01:05:31;99312.59;;;-1.68;100.00
5284;BME280;15377;48.540;9.268;2023-02-13T01:07:57;99312.50;;;-1.72;100.00
5284;BME280;15377;48.540;9.268;2023-02-13T01:10:22;99309.78;;;-1.72;100.00
5284;BME280;15377;48.540;9.268;2023-02-13T01:12:48;99319.59;;;-1.79;100.00
5284;BME280;15377;48.540;9.268;2023-02-13T01:15:13;99308.41;;;-1.93;100.00
5284;BME280;15377;48.540;9.268;2023-02-13T01:17:39;99307.72;;;-1.90;100.00
5284;BME280;15377;48.540;9.268;2023-02-13T01:20:08;99314.25;;;-1.91;100.00
5284;BME280;15377;48.540;9.268;2023-02-13T01:22:34;99311.16;;;-2.05;100.00
5284;BME280;15377;48.540;9.268;2023-02-13T01:25:00;99302.63;;;-2.07;100.00
5284;BME280;15377;48.540;9.268;2023-02-13T01:27:28;99316.06;;;-1.95;100.00
5284;BME280;15377;48.540;9.268;2023-02-13T01:29:54;99312.13;;;-1.98;100.00
5284;BME280;15377;48.540;9.268;2023-02-13T01:32:20;99314.56;;;-2.08;100.00
5284;BME280;15377;48.540;9.268;2023-02-13T01:34:46;99308.91;;;-2.03;100.00
5284;BME280;15377;48.540;9.268;2023-02-13T01:37:12;99303.31;;;-2.10;100.00
5284;BME280;15377;48.540;9.268;2023-02-13T01:39:37;99300.66;;;-2.22;100.00
5284;BME280;15377;48.540;9.268;2023-02-13T01:42:03;99315.72;;;-2.21;100.00
5284;BME280;15377;48.540;9.268;2023-02-13T01:47:15;99305.44;;;-2.43;100.00
5284;BME280;15377;48.540;9.268;2023-02-13T01:49:44;99301.84;;;-2.47;100.00
5284;BME280;15377;48.540;9.268;2023-02-13T01:52:12;99298.69;;;-2.49;100.00
5284;BME280;15377;48.540;9.268;2023-02-13T01:54:38;99285.91;;;-2.52;100.00
5284;BME280;15377;48.540;9.268;2023-02-13T01:57:07;99299.34;;;-2.40;100.00
5284;BME280;15377;48.540;9.268;2023-02-13T02:00:00;99300.91;;;-2.27;100.00
5284;BME280;15377;48.540;9.268;2023-02-13T02:02:27;99299.72;;;-2.14;100.00
5284;BME280;15377;48.540;9.268;2023-02-13T02:04:53;99298.59;;;-2.13;100.00
5284;BME280;15377;48.540;9.268;2023-02-13T02:07:26;99305.16;;;-2.26;100.00
5284;BME280;15377;48.540;9.268;2023-02-13T02:09:55;99300.25;;;-2.36;100.00
5284;BME280;15377;48.540;9.268;2023-02-13T02:15:14;99290.34;;;-2.32;100.00
5284;BME280;15377;48.540;9.268;2023-02-13T02:17:40;99295.69;;;-2.20;100.00
5284;BME280;15377;48.540;9.268;2023-02-13T02:20:19;99302.22;;;-2.21;100.00
5284;BME280;15377;48.540;9.268;2023-02-13T02:22:58;99292.69;;;-2.31;100.00
5284;BME280;15377;48.540;9.268;2023-02-13T02:29:10;99292.09;;;-2.24;100.00
5284;BME280;15377;48.540;9.268;2023-02-13T02:31:51;99297.88;;;-2.26;100.00
5284;BME280;15377;48.540;9.268;2023-02-13T02:37:57;99299.56;;;-2.33;100.00
5284;BME280;15377;48.540;9.268;2023-02-13T02:40:48;99297.78;;;-2.41;100.00
5284;BME280;15377;48.540;9.268;2023-02-13T02:43:41;99295.78;;;-2.56;100.00
5284;BME280;15377;48.540;9.268;2023-02-13T02:49:05;99298.28;;;-2.75;100.00
5284;BME280;15377;48.540;9.268;2023-02-13T02:52:04;99301.44;;;-2.73;100.00
5284;BME280;15377;48.540;9.268;2023-02-13T02:57:30;99302.34;;;-2.81;100.00
5284;BME280;15377;48.540;9.268;2023-02-13T03:00:18;99302.59;;;-2.86;100.00
5284;BME280;15377;48.540;9.268;2023-02-13T03:03:23;99307.72;;;-2.81;100.00
5284;BME280;15377;48.540;9.268;2023-02-13T03:06:18;99302.56;;;-2.74;100.00
5284;BME280;15377;48.540;9.268;2023-02-13T03:08:52;99308.19;;;-2.79;100.00
5284;BME280;15377;48.540;9.268;2023-02-13T03:11:37;99311.78;;;-2.87;100.00
5284;BME280;15377;48.540;9.268;2023-02-13T03:14:24;99308.84;;;-2.82;100.00
5284;BME280;15377;48.540;9.268;2023-02-13T03:16:51;99310.41;;;-2.81;100.00
5284;BME280;15377;48.540;9.268;2023-02-13T03:28:35;99322.78;;;-2.92;100.00
5284;BME280;15377;48.540;9.268;2023-02-13T03:31:34;99335.31;;;-2.72;100.00
5284;BME280;15377;48.540;9.268;2023-02-13T03:34:09;99340.50;;;-2.55;100.00
5284;BME280;15377;48.540;9.268;2023-02-13T03:36:45;99340.03;;;-2.45;100.00
5284;BME280;15377;48.540;9.268;2023-02-13T03:39:43;99325.19;;;-2.39;100.00
5284;BME280;15377;48.540;9.268;2023-02-13T03:42:28;99329.69;;;-2.43;100.00
5284;BME280;15377;48.540;9.268;2023-02-13T03:44:59;99337.81;;;-2.55;100.00
5284;BME280;15377;48.540;9.268;2023-02-13T03:47:47;99336.00;;;-2.75;100.00
5284;BME280;15377;48.540;9.268;2023-02-13T03:53:07;99341.41;;;-2.75;100.00
5284;BME280;15377;48.540;9.268;2023-02-13T03:55:39;99345.44;;;-2.69;100.00
5284;BME280;15377;48.540;9.268;2023-02-13T03:58:30;99338.91;;;-2.80;100.00
5284;BME280;15377;48.540;9.268;2023-02-13T04:01:17;99341.41;;;-2.87;100.00
5284;BME280;15377;48.540;9.268;2023-02-13T04:03:54;99350.16;;;-2.90;100.00
5284;BME280;15377;48.540;9.268;2023-02-13T04:06:46;99350.28;;;-2.87;100.00
5284;BME280;15377;48.540;9.268;2023-02-13T04:09:13;99347.47;;;-2.90;100.00
5284;BME280;15377;48.540;9.268;2023-02-13T04:12:08;99345.91;;;-2.79;100.00
5284;BME280;15377;48.540;9.268;2023-02-13T04:15:15;99327.47;;;-2.89;100.00
5284;BME280;15377;48.540;9.268;2023-02-13T04:17:36;99345.44;;;-2.69;100.00
5284;BME280;15377;48.540;9.268;2023-02-13T04:20:04;99331.72;;;-2.64;100.00
5284;BME280;15377;48.540;9.268;2023-02-13T04:22:30;99336.69;;;-2.54;100.00
5284;BME280;15377;48.540;9.268;2023-02-13T04:24:56;99343.31;;;-2.64;100.00
5284;BME280;15377;48.540;9.268;2023-02-13T04:27:24;99348.69;;;-2.76;100.00
5284;BME280;15377;48.540;9.268;2023-02-13T04:29:50;99344.53;;;-2.73;100.00
5284;BME280;15377;48.540;9.268;2023-02-13T04:32:15;99339.84;;;-2.76;100.00
5284;BME280;15377;48.540;9.268;2023-02-13T04:34:41;99337.13;;;-2.88;100.00
5284;BME280;15377;48.540;9.268;2023-02-13T04:37:06;99342.75;;;-2.93;100.00
5284;BME280;15377;48.540;9.268;2023-02-13T04:39:32;99347.13;;;-2.89;100.00
5284;BME280;15377;48.540;9.268;2023-02-13T04:41:57;99341.53;;;-2.96;100.00
5284;BME280;15377;48.540;9.268;2023-02-13T04:44:22;99340.94;;;-2.89;100.00
5284;BME280;15377;48.540;9.268;2023-02-13T04:46:48;99332.88;;;-2.77;100.00
5284;BME280;15377;48.540;9.268;2023-02-13T04:49:13;99325.34;;;-2.72;100.00
5284;BME280;15377;48.540;9.268;2023-02-13T04:51:38;99326.81;;;-2.74;100.00
5284;BME280;15377;48.540;9.268;2023-02-13T04:54:04;99333.53;;;-2.68;100.00
5284;BME280;15377;48.540;9.268;2023-02-13T04:56:29;99315.38;;;-2.71;100.00
5284;BME280;15377;48.540;9.268;2023-02-13T04:58:54;99332.06;;;-2.54;100.00
5284;BME280;15377;48.540;9.268;2023-02-13T05:01:20;99337.09;;;-2.40;100.00
5284;BME280;15377;48.540;9.268;2023-02-13T05:03:46;99341.38;;;-2.39;100.00
5284;BME280;15377;48.540;9.268;2023-02-13T05:06:11;99348.09;;;-2.33;100.00
5284;BME280;15377;48.540;9.268;2023-02-13T05:08:37;99349.88;;;-2.25;100.00
5284;BME280;15377;48.540;9.268;2023-02-13T05:11:02;99353.91;;;-2.19;100.00
5284;BME280;15377;48.540;9.268;2023-02-13T05:13:27;99354.34;;;-2.17;100.00
5284;BME280;15377;48.540;9.268;2023-02-13T05:15:53;99353.03;;;-2.23;100.00
5284;BME280;15377;48.540;9.268;2023-02-13T05:18:18;99354.16;;;-2.36;100.00
5284;BME280;15377;48.540;9.268;2023-02-13T05:20:44;99353.94;;;-2.43;100.00
5284;BME280;15377;48.540;9.268;2023-02-13T05:23:13;99360.13;;;-2.55;100.00
5284;BME280;15377;48.540;9.268;2023-02-13T05:25:48;99354.88;;;-2.63;100.00
5284;BME280;15377;48.540;9.268;2023-02-13T05:28:15;99362.50;;;-2.65;100.00
5284;BME280;15377;48.540;9.268;2023-02-13T05:30:59;99365.66;;;-2.63;100.00
5284;BME280;15377;48.540;9.268;2023-02-13T05:33:25;99357.09;;;-2.65;100.00
5284;BME280;15377;48.540;9.268;2023-02-13T05:35:50;99355.31;;;-2.73;100.00
5284;BME280;15377;48.540;9.268;2023-02-13T05:38:16;99358.91;;;-2.81;100.00
5284;BME280;15377;48.540;9.268;2023-02-13T05:40:41;99364.09;;;-2.76;100.00
5284;BME280;15377;48.540;9.268;2023-02-13T05:43:06;99363.28;;;-2.77;100.00
5284;BME280;15377;48.540;9.268;2023-02-13T05:45:32;99362.72;;;-2.82;100.00
5284;BME280;15377;48.540;9.268;2023-02-13T05:47:57;99366.34;;;-2.78;100.00
5284;BME280;15377;48.540;9.268;2023-02-13T05:50:22;99361.97;;;-2.83;100.00
5284;BME280;15377;48.540;9.268;2023-02-13T05:52:48;99369.25;;;-2.83;100.00
5284;BME280;15377;48.540;9.268;2023-02-13T05:55:14;99361.38;;;-2.88;100.00
5284;BME280;15377;48.540;9.268;2023-02-13T05:57:39;99360.03;;;-2.94;100.00
5284;BME280;15377;48.540;9.268;2023-02-13T06:00:05;99358.78;;;-2.85;100.00
5284;BME280;15377;48.540;9.268;2023-02-13T06:02:31;99354.31;;;-2.81;100.00
5284;BME280;15377;48.540;9.268;2023-02-13T06:04:56;99359.38;;;-2.79;100.00
5284;BME280;15377;48.540;9.268;2023-02-13T06:07:22;99365.09;;;-2.81;100.00
5284;BME280;15377;48.540;9.268;2023-02-13T06:09:47;99356.66;;;-2.91;100.00
5284;BME280;15377;48.540;9.268;2023-02-13T06:12:12;99362.50;;;-2.89;100.00
5284;BME280;15377;48.540;9.268;2023-02-13T06:14:38;99366.75;;;-3.00;100.00
5284;BME280;15377;48.540;9.268;2023-02-13T06:17:03;99371.34;;;-3.01;100.00
5284;BME280;15377;48.540;9.268;2023-02-13T06:19:28;99365.84;;;-3.04;100.00
5284;BME280;15377;48.540;9.268;2023-02-13T06:21:54;99372.81;;;-3.03;100.00
5284;BME280;15377;48.540;9.268;2023-02-13T06:24:19;99366.31;;;-2.90;100.00
5284;BME280;15377;48.540;9.268;2023-02-13T06:26:44;99365.88;;;-2.80;100.00
5284;BME280;15377;48.540;9.268;2023-02-13T06:29:10;99367.88;;;-2.89;100.00
5284;BME280;15377;48.540;9.268;2023-02-13T06:31:36;99348.81;;;-3.08;100.00
5284;BME280;15377;48.540;9.268;2023-02-13T06:34:02;99372.81;;;-3.03;100.00
5284;BME280;15377;48.540;9.268;2023-02-13T06:36:27;99385.81;;;-3.05;100.00
5284;BME280;15377;48.540;9.268;2023-02-13T06:38:52;99376.16;;;-3.18;100.00
5284;BME280;15377;48.540;9.268;2023-02-13T06:41:18;99381.56;;;-3.18;100.00
5284;BME280;15377;48.540;9.268;2023-02-13T06:43:43;99379.28;;;-3.28;100.00
5284;BME280;15377;48.540;9.268;2023-02-13T06:46:09;99378.16;;;-3.27;100.00
5284;BME280;15377;48.540;9.268;2023-02-13T06:48:34;99376.16;;;-3.18;100.00
5284;BME280;15377;48.540;9.268;2023-02-13T06:51:00;99372.47;;;-3.14;100.00
5284;BME280;15377;48.540;9.268;2023-02-13T06:53:28;99378.44;;;-3.08;100.00
5284;BME280;15377;48.540;9.268;2023-02-13T06:55:54;99383.56;;;-3.03;100.00
5284;BME280;15377;48.540;9.268;2023-02-13T06:58:21;99390.75;;;-3.07;100.00
5284;BME280;15377;48.540;9.268;2023-02-13T07:00:47;99387.16;;;-3.11;100.00
5284;BME280;15377;48.540;9.268;2023-02-13T07:03:12;99384.47;;;-3.11;100.00
5284;BME280;15377;48.540;9.268;2023-02-13T07:05:42;99385.94;;;-3.14;100.00
5284;BME280;15377;48.540;9.268;2023-02-13T07:08:09;99390.09;;;-3.16;100.00
5284;BME280;15377;48.540;9.268;2023-02-13T07:10:39;99392.31;;;-3.18;100.00
5284;BME280;15377;48.540;9.268;2023-02-13T07:13:05;99394.53;;;-3.20;100.00
5284;BME280;15377;48.540;9.268;2023-02-13T07:15:32;99384.38;;;-3.15;100.00
5284;BME280;15377;48.540;9.268;2023-02-13T07:17:58;99395.47;;;-3.04;100.00
5284;BME280;15377;48.540;9.268;2023-02-13T07:20:24;99387.41;;;-3.04;100.00
5284;BME280;15377;48.540;9.268;2023-02-13T07:22:50;99392.38;;;-2.94;100.00
5284;BME280;15377;48.540;9.268;2023-02-13T07:25:16;99394.81;;;-2.89;100.00
5284;BME280;15377;48.540;9.268;2023-02-13T07:27:41;99388.09;;;-2.83;100.00
5284;BME280;15377;48.540;9.268;2023-02-13T07:30:07;99405.84;;;-2.58;100.00
5284;BME280;15377;48.540;9.268;2023-02-13T07:32:32;99398.53;;;-2.46;100.00
5284;BME280;15377;48.540;9.268;2023-02-13T07:34:57;99404.47;;;-2.28;100.00
5284;BME280;15377;48.540;9.268;2023-02-13T07:37:23;99401.53;;;-1.99;100.00
5284;BME280;15377;48.540;9.268;2023-02-13T07:39:48;99402.91;;;-1.78;100.00
5284;BME280;15377;48.540;9.268;2023-02-13T07:42:13;99391.28;;;-1.66;100.00
5284;BME280;15377;48.540;9.268;2023-02-13T07:44:39;99407.63;;;-1.47;100.00
5284;BME280;15377;48.540;9.268;2023-02-13T07:47:04;99400.16;;;-1.38;100.00
5284;BME280;15377;48.540;9.268;2023-02-13T07:49:30;99402.81;;;-1.26;100.00
5284;BME280;15377;48.540;9.268;2023-02-13T07:51:56;99408.41;;;-1.19;100.00
5284;BME280;15377;48.540;9.268;2023-02-13T07:54:22;99407.03;;;-1.13;100.00
5284;BME280;15377;48.540;9.268;2023-02-13T07:56:48;99404.06;;;-1.08;100.00
5284;BME280;15377;48.540;9.268;2023-02-13T07:59:13;99406.50;;;-1.03;100.00
5284;BME280;15377;48.540;9.268;2023-02-13T08:01:38;99408.25;;;-0.95;100.00
5284;BME280;15377;48.540;9.268;2023-02-13T08:04:03;99407.56;;;-0.92;100.00
5284;BME280;15377;48.540;9.268;2023-02-13T08:06:29;99392.03;;;-0.95;100.00
5284;BME280;15377;48.540;9.268;2023-02-13T08:08:54;99409.31;;;-0.84;100.00
5284;BME280;15377;48.540;9.268;2023-02-13T08:11:38;99406.34;;;-0.79;100.00
5284;BME280;15377;48.540;9.268;2023-02-13T08:14:23;99407.13;;;-0.79;100.00
5284;BME280;15377;48.540;9.268;2023-02-13T08:16:49;99411.84;;;-0.76;100.00
5284;BME280;15377;48.540;9.268;2023-02-13T08:19:15;99410.53;;;-0.66;100.00
5284;BME280;15377;48.540;9.268;2023-02-13T08:21:41;99409.13;;;-0.60;100.00
5284;BME280;15377;48.540;9.268;2023-02-13T08:24:10;99407.72;;;-0.54;100.00
5284;BME280;15377;48.540;9.268;2023-02-13T08:26:35;99413.31;;;-0.47;100.00
5284;BME280;15377;48.540;9.268;2023-02-13T08:29:00;99404.94;;;-0.42;100.00
5284;BME280;15377;48.540;9.268;2023-02-13T08:31:26;99410.22;;;-0.30;100.00
5284;BME280;15377;48.540;9.268;2023-02-13T08:33:51;99418.59;;;-0.20;100.00
5284;BME280;15377;48.540;9.268;2023-02-13T08:36:17;99400.47;;;-0.19;100.00
5284;BME280;15377;48.540;9.268;2023-02-13T08:38:46;99402.78;;;-0.03;100.00
5284;BME280;15377;48.540;9.268;2023-02-13T08:41:12;99399.06;;;0.05;100.00
5284;BME280;15377;48.540;9.268;2023-02-13T08:43:38;99400.78;;;0.13;100.00
5284;BME280;15377;48.540;9.268;2023-02-13T08:46:03;99401.78;;;0.24;100.00
5284;BME280;15377;48.540;9.268;2023-02-13T08:48:29;99408.22;;;0.35;100.00
5284;BME280;15377;48.540;9.268;2023-02-13T08:50:54;99398.81;;;0.48;100.00
5284;BME280;15377;48.540;9.268;2023-02-13T08:53:20;99399.84;;;0.63;100.00
5284;BME280;15377;48.540;9.268;2023-02-13T08:55:55;99400.19;;;0.80;100.00
5284;BME280;15377;48.540;9.268;2023-02-13T08:58:21;99400.94;;;1.00;100.00
5284;BME280;15377;48.540;9.268;2023-02-13T09:00:46;99390.16;;;1.48;100.00
5284;BME280;15377;48.540;9.268;2023-02-13T09:03:12;99388.06;;;2.82;100.00
5284;BME280;15377;48.540;9.268;2023-02-13T09:05:37;99392.44;;;4.55;100.00
5284;BME280;15377;48.540;9.268;2023-02-13T09:08:03;99410.22;;;6.01;100.00
5284;BME280;15377;48.540;9.268;2023-02-13T09:10:32;99415.63;;;7.15;100.00
5284;BME280;15377;48.540;9.268;2023-02-13T09:12:57;99435.19;;;8.22;100.00
5284;BME280;15377;48.540;9.268;2023-02-13T09:15:23;99432.31;;;8.33;100.00
5284;BME280;15377;48.540;9.268;2023-02-13T09:17:49;99429.97;;;8.68;100.00
5284;BME280;15377;48.540;9.268;2023-02-13T09:20:14;99428.66;;;9.63;100.00
5284;BME280;15377;48.540;9.268;2023-02-13T09:22:40;99423.16;;;10.12;100.00
5284;BME280;15377;48.540;9.268;2023-02-13T09:25:06;99416.31;;;10.43;100.00
5284;BME280;15377;48.540;9.268;2023-02-13T09:27:32;99418.25;;;11.01;100.00
5284;BME280;15377;48.540;9.268;2023-02-13T09:29:59;99418.16;;;11.75;100.00
5284;BME280;15377;48.540;9.268;2023-02-13T09:32:24;99390.50;;;12.23;99.73
5284;BME280;15377;48.540;9.268;2023-02-13T09:34:50;99418.16;;;12.93;92.88
5284;BME280;15377;48.540;9.268;2023-02-13T09:37:15;99415.72;;;13.48;83.56
5284;BME280;15377;48.540;9.268;2023-02-13T09:39:40;99427.97;;;13.85;80.17
5284;BME280;15377;48.540;9.268;2023-02-13T09:42:18;99425.97;;;13.98;73.16
5284;BME280;15377;48.540;9.268;2023-02-13T09:44:45;99411.44;;;14.53;71.18
5284;BME280;15377;48.540;9.268;2023-02-13T09:47:18;99421.63;;;14.98;68.17
5284;BME280;15377;48.540;9.268;2023-02-13T09:49:50;99415.84;;;15.66;66.14
5284;BME280;15377;48.540;9.268;2023-02-13T09:52:17;99424.34;;;14.68;61.97
5284;BME280;15377;48.540;9.268;2023-02-13T09:54:42;99425.97;;;14.99;64.99
5284;BME280;15377;48.540;9.268;2023-02-13T09:57:33;99417.59;;;15.42;61.41
5284;BME280;15377;48.540;9.268;2023-02-13T10:18:17;99441.03;;;14.22;57.99
5284;BME280;15377;48.540;9.268;2023-02-13T10:20:54;99434.19;;;12.57;67.69
5284;BME280;15377;48.540;9.268;2023-02-13T10:23:23;99437.81;;;11.06;79.52
5284;BME280;15377;48.540;9.268;2023-02-13T10:28:43;99438.22;;;9.28;99.67
5284;BME280;15377;48.540;9.268;2023-02-13T10:31:16;99439.47;;;8.60;100.00
5284;BME280;15377;48.540;9.268;2023-02-13T10:33:51;99429.88;;;8.01;100.00
5284;BME280;15377;48.540;9.268;2023-02-13T10:36:35;99424.00;;;7.52;100.00
5284;BME280;15377;48.540;9.268;2023-02-13T10:41:50;99420.81;;;6.96;100.00
5284;BME280;15377;48.540;9.268;2023-02-13T10:49:50;99408.59;;;6.28;100.00
5284;BME280;15377;48.540;9.268;2023-02-13T10:55:18;99401.19;;;6.22;100.00
5284;BME280;15377;48.540;9.268;2023-02-13T11:00:24;99388.72;;;6.10;100.00
5284;BME280;15377;48.540;9.268;2023-02-13T11:02:52;99402.00;;;6.12;100.00
5284;BME280;15377;48.540;9.268;2023-02-13T11:05:25;99400.03;;;6.09;100.00
5284;BME280;15377;48.540;9.268;2023-02-13T11:07:54;99394.19;;;6.14;100.00
5284;BME280;15377;48.540;9.268;2023-02-13T11:10:24;99387.16;;;6.09;100.00
5284;BME280;15377;48.540;9.268;2023-02-13T11:12:51;99384.81;;;6.15;100.00
5284;BME280;15377;48.540;9.268;2023-02-13T11:15:30;99384.00;;;6.21;100.00
5284;BME280;15377;48.540;9.268;2023-02-13T11:17:58;99375.41;;;6.16;100.00
5284;BME280;15377;48.540;9.268;2023-02-13T11:20:30;99386.34;;;6.23;100.00
5284;BME280;15377;48.540;9.268;2023-02-13T11:23:17;99376.19;;;6.27;100.00
5284;BME280;15377;48.540;9.268;2023-02-13T11:28:30;99368.34;;;6.36;100.00
5284;BME280;15377;48.540;9.268;2023-02-13T11:33:40;99375.34;;;6.40;100.00
5284;BME280;15377;48.540;9.268;2023-02-13T11:36:13;99359.72;;;6.41;100.00
5284;BME280;15377;48.540;9.268;2023-02-13T11:38:39;99351.56;;;6.34;100.00
5284;BME280;15377;48.540;9.268;2023-02-13T11:41:13;99367.84;;;6.62;100.00
5284;BME280;15377;48.540;9.268;2023-02-13T11:43:48;99368.16;;;6.78;100.00
5284;BME280;15377;48.540;9.268;2023-02-13T11:46:22;99365.84;;;6.73;100.00
5284;BME280;15377;48.540;9.268;2023-02-13T11:51:43;99364.97;;;6.90;100.00
5284;BME280;15377;48.540;9.268;2023-02-13T11:54:24;99368.03;;;6.99;100.00
5284;BME280;15377;48.540;9.268;2023-02-13T11:56:54;99366.44;;;7.08;100.00
5284;BME280;15377;48.540;9.268;2023-02-13T11:59:25;99357.75;;;7.16;100.00
5284;BME280;15377;48.540;9.268;2023-02-13T12:04:38;99362.81;;;7.21;100.00
5284;BME280;15377;48.540;9.268;2023-02-13T12:07:12;99364.00;;;7.20;100.00
5284;BME280;15377;48.540;9.268;2023-02-13T12:09:39;99360.44;;;7.23;100.00
5284;BME280;15377;48.540;9.268;2023-02-13T12:12:05;99359.19;;;7.31;100.00
5284;BME280;15377;48.540;9.268;2023-02-13T12:14:36;99354.50;;;7.35;100.00
5284;BME280;15377;48.540;9.268;2023-02-13T12:17:26;99354.09;;;7.33;100.00
5284;BME280;15377;48.540;9.268;2023-02-13T12:19:53;99361.53;;;7.36;100.00
5284;BME280;15377;48.540;9.268;2023-02-13T12:43:36;99342.72;;;7.38;100.00
5284;BME280;15377;48.540;9.268;2023-02-13T12:46:24;99337.97;;;7.42;100.00
5284;BME280;15377;48.540;9.268;2023-02-13T13:00:48;99341.00;;;7.55;100.00
5284;BME280;15377;48.540;9.268;2023-02-13T13:03:27;99345.72;;;7.54;100.00
5284;BME280;15377;48.540;9.268;2023-02-13T13:06:25;99343.03;;;7.47;100.00
5284;BME280;15377;48.540;9.268;2023-02-13T13:16:51;99327.00;;;7.42;100.00
5284;BME280;15377;48.540;9.268;2023-02-13T13:19:44;99330.94;;;7.41;100.00
5284;BME280;15377;48.540;9.268;2023-02-13T13:22:17;99323.16;;;7.40;100.00
5284;BME280;15377;48.540;9.268;2023-02-13T13:27:29;99316.94;;;7.32;100.00
5284;BME280;15377;48.540;9.268;2023-02-13T13:29:59;99324.78;;;7.30;100.00
5284;BME280;15377;48.540;9.268;2023-02-13T13:32:27;99308.78;;;7.25;100.00
5284;BME280;15377;48.540;9.268;2023-02-13T13:34:54;99320.09;;;7.27;100.00
5284;BME280;15377;48.540;9.268;2023-02-13T13:38:30;99320.09;;;7.27;100.00
5284;BME280;15377;48.540;9.268;2023-02-13T13:43:27;99321.00;;;7.10;100.00
5284;BME280;15377;48.540;9.268;2023-02-13T13:46:09;99319.47;;;7.06;100.00
5284;BME280;15377;48.540;9.268;2023-02-13T13:49:09;99317.53;;;7.07;100.00
5284;BME280;15377;48.540;9.268;2023-02-13T13:51:38;99318.72;;;7.06;100.00
5284;BME280;15377;48.540;9.268;2023-02-13T14:05:09;99317.81;;;7.22;100.00
5284;BME280;15377;48.540;9.268;2023-02-13T14:07:41;99315.84;;;7.19;100.00
5284;BME280;15377;48.540;9.268;2023-02-13T14:20:57;99315.06;;;7.22;100.00
5284;BME280;15377;48.540;9.268;2023-02-13T14:23:33;99319.38;;;7.23;100.00
5284;BME280;15377;48.540;9.268;2023-02-13T14:28:42;99311.53;;;7.22;100.00
5284;BME280;15377;48.540;9.268;2023-02-13T14:31:28;99313.13;;;7.19;100.00
5284;BME280;15377;48.540;9.268;2023-02-13T14:34:00;99315.53;;;7.10;100.00
5284;BME280;15377;48.540;9.268;2023-02-13T14:36:32;99301.44;;;7.15;100.00
5284;BME280;15377;48.540;9.268;2023-02-13T14:39:01;99315.13;;;7.15;100.00
5284;BME280;15377;48.540;9.268;2023-02-13T14:42:24;99310.06;;;7.10;100.00
5284;BME280;15377;48.540;9.268;2023-02-13T14:44:48;99318.31;;;7.07;100.00
5284;BME280;15377;48.540;9.268;2023-02-13T14:47:31;99318.72;;;7.06;100.00
5284;BME280;15377;48.540;9.268;2023-02-13T14:50:00;99320.28;;;7.03;100.00
5284;BME280;15377;48.540;9.268;2023-02-13T14:52:37;99311.72;;;7.01;100.00
5284;BME280;15377;48.540;9.268;2023-02-13T14:55:13;99307.88;;;6.92;100.00
5284;BME280;15377;48.540;9.268;2023-02-13T14:57:48;99304.72;;;6.97;100.00
5284;BME280;15377;48.540;9.268;2023-02-13T15:00:30;99308.59;;;6.96;100.00
5284;BME280;15377;48.540;9.268;2023-02-13T15:03:23;99315.69;;;6.93;100.00
5284;BME280;15377;48.540;9.268;2023-02-13T15:05:50;99312.56;;;6.88;100.00
5284;BME280;15377;48.540;9.268;2023-02-13T15:08:23;99307.56;;;6.76;100.00
5284;BME280;15377;48.540;9.268;2023-02-13T15:10:53;99309.97;;;6.67;100.00
5284;BME280;15377;48.540;9.268;2023-02-13T15:13:23;99313.50;;;6.60;100.00
5284;BME280;15377;48.540;9.268;2023-02-13T15:15:55;99304.97;;;6.51;100.00
5284;BME280;15377;48.540;9.268;2023-02-13T15:18:32;99303.44;;;6.47;100.00
5284;BME280;15377;48.540;9.268;2023-02-13T15:21:00;99301.91;;;6.39;100.00
5284;BME280;15377;48.540;9.268;2023-02-13T15:23:28;99294.94;;;6.27;100.00
5284;BME280;15377;48.540;9.268;2023-02-13T15:26:05;99304.69;;;6.25;100.00
5284;BME280;15377;48.540;9.268;2023-02-13T15:28:32;99303.97;;;6.17;100.00
5284;BME280;15377;48.540;9.268;2023-02-13T15:31:01;99296.16;;;6.09;100.00
5284;BME280;15377;48.540;9.268;2023-02-13T15:33:31;99295.78;;;6.07;100.00
5284;BME280;15377;48.540;9.268;2023-02-13T15:36:03;99289.97;;;5.98;100.00
5284;BME280;15377;48.540;9.268;2023-02-13T15:38:35;99285.72;;;5.90;100.00
5284;BME280;15377;48.540;9.268;2023-02-13T15:41:03;99299.38;;;5.83;100.00
5284;BME280;15377;48.540;9.268;2023-02-13T15:44:01;99299.78;;;5.71;100.00
5284;BME280;15377;48.540;9.268;2023-02-13T15:46:30;99288.09;;;5.60;100.00
5284;BME280;15377;48.540;9.268;2023-02-13T15:49:03;99290.44;;;5.58;100.00
5284;BME280;15377;48.540;9.268;2023-02-13T15:51:30;99287.34;;;5.49;100.00